KQA117 EHAM-HKJK
Flight info
| Callsign | KQA117 |
|---|---|
| Flight time | N/A |
| Altitude | 37000 |
| Route | LOPIK N852 DIK M150 GEBDA/N0491F380 Y173 PABLA/N0488F370 DCT UTABA L607 ELMEM N606 OTRES T307 DIRAB DCT MOBDO/N0479F390 DCT BARPI DCT NUPSO DCT DBK DCT LEBGA DCT TRN DCT PINDO UL607 KEA UN132 KUMBI L612 BLT A16 CVO A727 LXR M999 SEDVA/N0488F410 M999 JDW G650 RASKA/N0488F400 G650 KONET UM308 RUDOL/N0485F410 UM308 LOTAS LOTAS3A |
| Aircraft | B788/H-SDE1E2E3FGHIJ2J3J4J5M1RWXYZ/LB1D1 |
Departure
| Time | 2026-05-05 21:26 |
|---|---|
| Airport | Amsterdam Airport Schiphol (EHAM) |
Arrival
| Time | N/A |
|---|---|
| Airport | Jomo Kenyatta International Airport (HKJK) |
| Time | Latitude | Longitude | Altitude | Speed | Heading |
|---|---|---|---|---|---|
| 2026-05-05 21:26 | 52.18569 | 4.94095 | 13791 ft | 376 kts | 141° |
| 2026-05-05 21:26 | 52.16502 | 4.96735 | 14516 ft | 379 kts | 141° |
| 2026-05-05 21:27 | 52.14431 | 4.99398 | 15252 ft | 381 kts | 141° |
| 2026-05-05 21:27 | 52.12350 | 5.02102 | 15979 ft | 384 kts | 141° |
| 2026-05-05 21:27 | 52.10218 | 5.04739 | 16674 ft | 387 kts | 148° |
| 2026-05-05 21:27 | 52.07735 | 5.06421 | 17378 ft | 390 kts | 163° |
| 2026-05-05 21:28 | 52.05113 | 5.07596 | 18065 ft | 392 kts | 165° |
| 2026-05-05 21:28 | 52.02460 | 5.08713 | 18678 ft | 395 kts | 164° |
| 2026-05-05 21:28 | 51.99807 | 5.09888 | 19297 ft | 396 kts | 164° |
| 2026-05-05 21:28 | 51.97146 | 5.11109 | 19887 ft | 398 kts | 164° |
| 2026-05-05 21:29 | 51.94469 | 5.12313 | 20472 ft | 400 kts | 165° |
| 2026-05-05 21:29 | 51.91897 | 5.13445 | 21030 ft | 402 kts | 165° |
| 2026-05-05 21:29 | 51.89186 | 5.14642 | 21554 ft | 405 kts | 165° |
| 2026-05-05 21:29 | 51.86459 | 5.15859 | 22073 ft | 408 kts | 165° |
| 2026-05-05 21:30 | 51.83708 | 5.17083 | 22563 ft | 411 kts | 165° |
| 2026-05-05 21:30 | 51.80937 | 5.18308 | 23087 ft | 414 kts | 165° |
| 2026-05-05 21:30 | 51.78147 | 5.19540 | 23546 ft | 417 kts | 165° |
| 2026-05-05 21:30 | 51.75344 | 5.20779 | 23959 ft | 419 kts | 165° |
| 2026-05-05 21:31 | 51.72526 | 5.22024 | 24377 ft | 421 kts | 165° |
| 2026-05-05 21:31 | 51.69690 | 5.23274 | 24769 ft | 423 kts | 165° |
| 2026-05-05 21:31 | 51.66842 | 5.24526 | 25163 ft | 425 kts | 165° |
| 2026-05-05 21:31 | 51.63980 | 5.25784 | 25542 ft | 427 kts | 165° |
| 2026-05-05 21:32 | 51.61102 | 5.27048 | 25923 ft | 429 kts | 165° |
| 2026-05-05 21:32 | 51.58254 | 5.28297 | 26300 ft | 431 kts | 165° |
| 2026-05-05 21:32 | 51.55355 | 5.29565 | 26679 ft | 433 kts | 165° |
| 2026-05-05 21:32 | 51.52442 | 5.30839 | 27036 ft | 434 kts | 165° |
| 2026-05-05 21:33 | 51.49520 | 5.32115 | 27411 ft | 436 kts | 165° |
| 2026-05-05 21:33 | 51.46583 | 5.33395 | 27764 ft | 438 kts | 165° |
| 2026-05-05 21:33 | 51.43641 | 5.34677 | 28108 ft | 439 kts | 165° |
| 2026-05-05 21:33 | 51.40684 | 5.35962 | 28432 ft | 441 kts | 165° |
| 2026-05-05 21:34 | 51.37715 | 5.37252 | 28769 ft | 443 kts | 165° |
| 2026-05-05 21:34 | 51.34739 | 5.38549 | 29078 ft | 445 kts | 164° |
| 2026-05-05 21:34 | 51.31748 | 5.39855 | 29398 ft | 446 kts | 164° |
| 2026-05-05 21:34 | 51.28746 | 5.41161 | 29700 ft | 448 kts | 164° |
| 2026-05-05 21:35 | 51.25716 | 5.42401 | 29991 ft | 449 kts | 168° |
| 2026-05-05 21:35 | 51.22649 | 5.43408 | 30233 ft | 451 kts | 167° |
| 2026-05-05 21:35 | 51.19574 | 5.44441 | 30499 ft | 452 kts | 167° |
| 2026-05-05 21:35 | 51.16519 | 5.45642 | 30740 ft | 453 kts | 163° |
| 2026-05-05 21:36 | 51.13481 | 5.46982 | 30985 ft | 454 kts | 163° |
| 2026-05-05 21:36 | 51.10430 | 5.48312 | 31212 ft | 455 kts | 164° |
| 2026-05-05 21:36 | 51.07372 | 5.49641 | 31467 ft | 456 kts | 163° |
| 2026-05-05 21:36 | 51.04306 | 5.50977 | 31709 ft | 457 kts | 163° |
| 2026-05-05 21:37 | 51.01233 | 5.52318 | 31922 ft | 459 kts | 163° |
| 2026-05-05 21:37 | 50.98150 | 5.53658 | 32163 ft | 460 kts | 163° |
| 2026-05-05 21:37 | 50.95063 | 5.54996 | 32382 ft | 461 kts | 163° |
| 2026-05-05 21:37 | 50.91965 | 5.56338 | 32624 ft | 461 kts | 163° |
| 2026-05-05 21:38 | 50.88871 | 5.57678 | 32957 ft | 460 kts | 163° |
| 2026-05-05 21:38 | 50.85787 | 5.59011 | 33290 ft | 459 kts | 163° |
| 2026-05-05 21:38 | 50.82714 | 5.60337 | 33617 ft | 457 kts | 163° |
| 2026-05-05 21:38 | 50.79650 | 5.61657 | 33939 ft | 456 kts | 163° |
| 2026-05-05 21:39 | 50.76585 | 5.62976 | 34131 ft | 457 kts | 163° |
| 2026-05-05 21:39 | 50.73519 | 5.64294 | 34320 ft | 457 kts | 164° |
| 2026-05-05 21:39 | 50.70444 | 5.65614 | 34492 ft | 458 kts | 164° |
| 2026-05-05 21:39 | 50.67373 | 5.66971 | 34699 ft | 459 kts | 162° |
| 2026-05-05 21:40 | 50.64309 | 5.68423 | 34851 ft | 460 kts | 163° |
| 2026-05-05 21:40 | 50.61231 | 5.69805 | 35045 ft | 461 kts | 163° |
| 2026-05-05 21:40 | 50.58153 | 5.71255 | 35216 ft | 461 kts | 159° |
| 2026-05-05 21:40 | 50.55150 | 5.73042 | 35367 ft | 463 kts | 159° |
| 2026-05-05 21:41 | 50.52134 | 5.74832 | 35549 ft | 464 kts | 159° |
| 2026-05-05 21:41 | 50.49109 | 5.76594 | 35725 ft | 465 kts | 160° |
| 2026-05-05 21:41 | 50.46076 | 5.78357 | 35891 ft | 465 kts | 160° |
| 2026-05-05 21:41 | 50.43034 | 5.80140 | 36056 ft | 466 kts | 160° |
| 2026-05-05 21:42 | 50.39994 | 5.81922 | 36240 ft | 467 kts | 160° |
| 2026-05-05 21:42 | 50.36984 | 5.83676 | 36408 ft | 468 kts | 160° |
| 2026-05-05 21:42 | 50.33924 | 5.85453 | 36547 ft | 470 kts | 160° |
| 2026-05-05 21:42 | 50.30858 | 5.87236 | 36704 ft | 471 kts | 160° |
| 2026-05-05 21:43 | 50.27778 | 5.89027 | 36829 ft | 473 kts | 160° |
| 2026-05-05 21:43 | 50.24681 | 5.90823 | 36826 ft | 477 kts | 160° |
| 2026-05-05 21:43 | 50.18455 | 5.94424 | 36820 ft | 475 kts | 160° |
| 2026-05-05 21:44 | 50.12267 | 5.97995 | 36819 ft | 474 kts | 160° |
| 2026-05-05 21:44 | 50.06080 | 6.01555 | 36811 ft | 474 kts | 160° |
| 2026-05-05 21:45 | 49.99890 | 6.05110 | 36811 ft | 474 kts | 160° |
| 2026-05-05 21:45 | 49.93699 | 6.08653 | 36818 ft | 474 kts | 160° |
| 2026-05-05 21:46 | 49.87864 | 6.13356 | 36855 ft | 477 kts | 142° |
| 2026-05-05 21:46 | 49.85429 | 6.16873 | 36848 ft | 481 kts | 131° |
| 2026-05-05 21:46 | 49.83445 | 6.21045 | 36867 ft | 483 kts | 121° |
| 2026-05-05 21:47 | 49.80270 | 6.30224 | 36829 ft | 484 kts | 119° |
| 2026-05-05 21:47 | 49.77144 | 6.39436 | 36830 ft | 483 kts | 120° |
| 2026-05-05 21:48 | 49.73997 | 6.48606 | 36828 ft | 483 kts | 120° |
| 2026-05-05 21:48 | 49.70848 | 6.57801 | 36821 ft | 483 kts | 120° |
| 2026-05-05 21:49 | 49.67702 | 6.66969 | 36818 ft | 483 kts | 120° |
| 2026-05-05 21:49 | 49.64544 | 6.76128 | 36815 ft | 483 kts | 120° |
| 2026-05-05 21:50 | 49.61379 | 6.85281 | 36806 ft | 484 kts | 120° |
| 2026-05-05 21:50 | 49.58204 | 6.94425 | 36811 ft | 484 kts | 120° |
| 2026-05-05 21:51 | 49.55021 | 7.03565 | 36818 ft | 484 kts | 120° |
| 2026-05-05 21:51 | 49.51833 | 7.12682 | 36817 ft | 483 kts | 120° |
| 2026-05-05 21:52 | 49.47037 | 7.26338 | 36811 ft | 484 kts | 121° |
| 2026-05-05 21:53 | 49.43826 | 7.35444 | 36822 ft | 485 kts | 121° |
| 2026-05-05 21:53 | 49.40625 | 7.44488 | 36816 ft | 485 kts | 121° |
| 2026-05-05 21:54 | 49.37398 | 7.53571 | 36811 ft | 484 kts | 121° |
| 2026-05-05 21:54 | 49.34166 | 7.62637 | 36807 ft | 485 kts | 121° |
| 2026-05-05 21:55 | 49.30922 | 7.71708 | 36809 ft | 485 kts | 121° |
| 2026-05-05 21:55 | 49.27670 | 7.80767 | 36814 ft | 485 kts | 121° |
| 2026-05-05 21:56 | 49.24410 | 7.89815 | 36820 ft | 486 kts | 121° |
| 2026-05-05 21:56 | 49.21140 | 7.98858 | 36829 ft | 485 kts | 121° |
| 2026-05-05 21:57 | 49.17867 | 8.07878 | 36832 ft | 485 kts | 122° |
| 2026-05-05 21:57 | 49.14586 | 8.16878 | 36833 ft | 484 kts | 123° |
| 2026-05-05 21:57 | 49.12655 | 8.21052 | 36864 ft | 480 kts | 135° |
| 2026-05-05 21:58 | 49.10270 | 8.24595 | 36865 ft | 478 kts | 145° |
| 2026-05-05 21:58 | 49.04511 | 8.29416 | 36874 ft | 473 kts | 165° |
| 2026-05-05 21:59 | 48.98071 | 8.31259 | 36859 ft | 471 kts | 174° |
| 2026-05-05 21:59 | 48.91577 | 8.32585 | 36866 ft | 470 kts | 174° |
| 2026-05-05 22:00 | 48.85105 | 8.34042 | 36881 ft | 471 kts | 167° |
| 2026-05-05 22:00 | 48.79081 | 8.37993 | 36885 ft | 478 kts | 147° |